Time;durP1;ratioP1;P1;durP2;ratioP2;P2;SDS_P1;SDS_P2;PMS_P1;PMS_P2;Temp;Humidity;BMP_temperature;BMP_pressure;BME280_temperature;BME280_humidity;BME280_pressure;Samples;Min_cycle;Max_cycle;Signal;HPM_P1;HPM_P2
2023/03/10 00:01:20;;;;;;;1.77;1.38;;;6.40;99.90;;;;;;4985442;28;20242;-67
2023/03/10 00:03:49;;;;;;;1.50;0.80;;;6.40;99.90;;;;;;4995433;28;20642;-67
2023/03/10 00:06:20;;;;;;;2.50;0.88;;;6.40;99.90;;;;;;4985215;28;20292;-66
2023/03/10 00:08:49;;;;;;;1.65;0.80;;;6.40;99.90;;;;;;5003300;28;20226;-68
2023/03/10 00:11:19;;;;;;;0.98;0.70;;;6.40;99.90;;;;;;4984457;28;20201;-68
2023/03/10 00:13:47;;;;;;;1.40;0.70;;;6.40;99.90;;;;;;4966847;28;20715;-68
2023/03/10 00:16:19;;;;;;;1.48;0.77;;;6.40;99.90;;;;;;4995542;28;20254;-67
2023/03/10 00:18:48;;;;;;;1.40;0.93;;;6.40;99.90;;;;;;5000656;28;20256;-67
2023/03/10 00:21:19;;;;;;;0.77;0.75;;;6.40;99.90;;;;;;5004802;28;20516;-69
2023/03/10 00:23:47;;;;;;;1.15;0.80;;;6.50;99.90;;;;;;4986235;28;20215;-69
2023/03/10 00:26:18;;;;;;;1.70;0.93;;;6.50;99.90;;;;;;5004380;28;20237;-67
2023/03/10 00:28:47;;;;;;;0.80;0.50;;;6.40;99.90;;;;;;4983851;28;20696;-69
2023/03/10 00:31:18;;;;;;;2.08;1.00;;;6.40;99.90;;;;;;4996600;28;20296;-67
2023/03/10 00:33:46;;;;;;;0.80;0.50;;;6.40;99.90;;;;;;4995960;28;20813;-67
2023/03/10 00:36:17;;;;;;;1.73;0.60;;;6.40;99.90;;;;;;4987846;28;20207;-68
2023/03/10 00:38:48;;;;;;;0.60;0.50;;;6.40;99.90;;;;;;4975871;28;20272;-68
2023/03/10 00:41:20;;;;;;;1.35;0.88;;;6.50;99.90;;;;;;4984545;28;20232;-67
2023/03/10 00:43:49;;;;;;;1.10;0.63;;;6.50;99.90;;;;;;4992448;28;20600;-66
2023/03/10 00:46:19;;;;;;;1.00;0.73;;;6.50;99.90;;;;;;4994947;28;20194;-68
2023/03/10 00:48:47;;;;;;;1.65;0.93;;;6.50;99.90;;;;;;4995570;28;20276;-68
2023/03/10 00:51:16;;;;;;;1.05;0.68;;;6.50;99.90;;;;;;4996022;28;20639;-69
2023/03/10 00:53:45;;;;;;;1.20;0.50;;;6.50;99.90;;;;;;4977324;28;20570;-69
2023/03/10 00:56:15;;;;;;;0.90;0.52;;;6.50;99.90;;;;;;5000670;28;20203;-69
2023/03/10 00:58:46;;;;;;;0.90;0.90;;;6.50;99.90;;;;;;5002781;28;20652;-67
2023/03/10 01:01:17;;;;;;;0.90;0.80;;;6.50;99.90;;;;;;4978970;28;20300;-68
2023/03/10 01:03:46;;;;;;;1.05;0.70;;;6.50;99.90;;;;;;4983821;28;20230;-68
2023/03/10 01:06:14;;;;;;;1.13;1.02;;;6.50;99.90;;;;;;4990680;28;20658;-69
2023/03/10 01:08:42;;;;;;;1.17;0.70;;;6.50;99.90;;;;;;4998256;28;20223;-69
2023/03/10 01:11:12;;;;;;;0.98;0.75;;;6.50;99.90;;;;;;4998517;28;20267;-67
2023/03/10 01:13:42;;;;;;;0.88;0.70;;;6.50;99.90;;;;;;4995763;28;20311;-67
2023/03/10 01:16:13;;;;;;;0.90;0.80;;;6.50;99.90;;;;;;4984416;28;20214;-69
2023/03/10 01:18:42;;;;;;;0.63;0.57;;;6.50;99.90;;;;;;5003083;28;20224;-69
2023/03/10 01:21:16;;;;;;;1.08;0.70;;;6.50;99.90;;;;;;4984665;28;20213;-67
2023/03/10 01:23:45;;;;;;;1.05;0.77;;;6.50;99.90;;;;;;4997209;28;20234;-68
2023/03/10 01:26:13;;;;;;;0.73;0.50;;;6.50;99.90;;;;;;5000468;28;20276;-68
2023/03/10 01:28:45;;;;;;;0.60;0.50;;;6.50;99.90;;;;;;4991286;28;20222;-67
2023/03/10 01:31:16;;;;;;;0.98;0.70;;;6.50;99.90;;;;;;4990526;28;20266;-68
2023/03/10 01:33:45;;;;;;;1.13;0.80;;;6.50;99.90;;;;;;4975876;28;20688;-68
2023/03/10 01:36:16;;;;;;;1.23;0.68;;;6.50;99.90;;;;;;4999610;28;20732;-69
2023/03/10 01:38:47;;;;;;;0.90;0.65;;;6.50;99.90;;;;;;4999805;28;20346;-67
2023/03/10 01:41:16;;;;;;;0.95;0.70;;;6.50;99.90;;;;;;4986511;28;20198;-68
2023/03/10 01:43:45;;;;;;;1.45;0.70;;;6.50;99.90;;;;;;4983727;28;20258;-67
2023/03/10 01:46:36;;;;;;;1.48;1.05;;;6.50;99.90;;;;;;4985901;28;20845;-68
2023/03/10 01:49:39;;;;;;;1.10;0.70;;;6.50;99.90;;;;;;4978809;28;20230;-69
2023/03/10 01:52:12;;;;;;;0.70;0.40;;;6.50;99.90;;;;;;4968939;28;20282;-67
2023/03/10 01:54:48;;;;;;;0.80;0.60;;;6.60;99.90;;;;;;4998397;28;20194;-67
2023/03/10 01:57:20;;;;;;;1.02;0.80;;;6.50;99.90;;;;;;4975525;28;20712;-69
2023/03/10 01:59:49;;;;;;;2.20;0.50;;;6.60;99.90;;;;;;5000085;28;20205;-68
2023/03/10 02:02:20;;;;;;;0.93;0.68;;;6.60;99.90;;;;;;4979429;28;20221;-67
2023/03/10 02:04:50;;;;;;;0.80;0.47;;;6.60;99.90;;;;;;4999565;28;20302;-67
2023/03/10 02:07:26;;;;;;;0.90;0.60;;;6.60;99.90;;;;;;4999248;28;20247;-67
2023/03/10 02:09:55;;;;;;;0.70;0.70;;;6.60;99.90;;;;;;4978576;28;20208;-68
2023/03/10 02:12:24;;;;;;;1.13;0.60;;;6.60;99.90;;;;;;5002492;28;20200;-69
2023/03/10 02:14:53;;;;;;;1.50;0.80;;;6.60;99.90;;;;;;4970347;28;20201;-69
2023/03/10 02:17:25;;;;;;;3.63;1.02;;;6.60;99.90;;;;;;4997276;28;20240;-69
2023/03/10 02:20:05;;;;;;;0.60;0.45;;;6.60;99.90;;;;;;4992466;28;20196;-67
2023/03/10 02:22:34;;;;;;;1.60;0.68;;;6.60;99.90;;;;;;4987981;28;20221;-69
2023/03/10 02:25:13;;;;;;;0.80;0.70;;;6.60;99.90;;;;;;4984897;28;20204;-67
2023/03/10 02:27:44;;;;;;;1.27;0.40;;;6.60;99.90;;;;;;4972881;28;20222;-69
2023/03/10 02:30:16;;;;;;;0.60;0.40;;;6.60;99.90;;;;;;4972475;28;20204;-68
2023/03/10 02:32:48;;;;;;;1.35;0.52;;;6.60;99.90;;;;;;4994872;28;20911;-68
2023/03/10 02:35:17;;;;;;;1.00;0.52;;;6.60;99.90;;;;;;4992289;28;20201;-66
2023/03/10 02:37:54;;;;;;;0.85;0.50;;;6.60;99.90;;;;;;4998980;28;20218;-68
2023/03/10 02:40:32;;;;;;;1.00;0.90;;;6.60;99.90;;;;;;4992010;28;20200;-69
2023/03/10 02:43:16;;;;;;;0.65;0.65;;;6.60;99.90;;;;;;4987604;28;20672;-68
2023/03/10 02:45:46;;;;;;;0.70;0.55;;;6.60;99.90;;;;;;4993739;28;20206;-68
2023/03/10 02:48:23;;;;;;;0.95;0.70;;;6.60;99.90;;;;;;4984879;28;20235;-69
2023/03/10 02:50:56;;;;;;;0.70;0.43;;;6.60;99.90;;;;;;4995387;28;20201;-68
2023/03/10 02:53:27;;;;;;;0.80;0.60;;;6.60;99.90;;;;;;4996507;28;20760;-68
2023/03/10 02:55:56;;;;;;;0.70;0.55;;;6.60;99.90;;;;;;4995159;28;20206;-68
2023/03/10 02:58:28;;;;;;;1.05;0.60;;;6.60;99.90;;;;;;4973983;28;20732;-69
2023/03/10 03:00:57;;;;;;;0.70;0.40;;;6.60;99.90;;;;;;4986890;28;20224;-66
2023/03/10 03:03:26;;;;;;;0.88;0.73;;;6.60;99.90;;;;;;4990797;28;20230;-69
2023/03/10 03:05:55;;;;;;;1.13;0.60;;;6.60;99.90;;;;;;4997248;28;20212;-68
2023/03/10 03:08:23;;;;;;;2.05;0.70;;;6.60;99.90;;;;;;4976404;28;20219;-69
2023/03/10 03:10:53;;;;;;;0.75;0.60;;;6.60;99.90;;;;;;4993364;28;20205;-69
2023/03/10 03:13:22;;;;;;;0.70;0.50;;;6.60;99.90;;;;;;4986842;28;20730;-68
2023/03/10 03:15:51;;;;;;;1.10;0.60;;;6.60;99.90;;;;;;4992191;28;20205;-68
2023/03/10 03:18:21;;;;;;;0.70;0.70;;;6.60;99.90;;;;;;4999999;28;20247;-67
2023/03/10 03:20:49;;;;;;;0.70;0.60;;;6.60;99.90;;;;;;4999163;28;20222;-67
2023/03/10 03:23:19;;;;;;;0.90;0.55;;;6.60;99.90;;;;;;4997693;28;20229;-68
2023/03/10 03:25:47;;;;;;;1.95;1.00;;;6.70;99.90;;;;;;4980149;28;20217;-69
2023/03/10 03:28:19;;;;;;;0.88;0.73;;;6.70;99.90;;;;;;4995613;28;20237;-69
2023/03/10 03:30:51;;;;;;;0.77;0.50;;;6.70;99.90;;;;;;4991222;28;20617;-68
2023/03/10 03:33:20;;;;;;;0.70;0.60;;;6.70;99.90;;;;;;5000653;28;20347;-68
2023/03/10 03:35:48;;;;;;;1.45;1.02;;;6.70;99.90;;;;;;5004133;28;20200;-68
2023/03/10 03:38:18;;;;;;;0.85;0.60;;;6.70;99.90;;;;;;4980804;28;20230;-69
2023/03/10 03:40:47;;;;;;;0.75;0.60;;;6.70;99.90;;;;;;4995973;28;20194;-69
2023/03/10 03:43:19;;;;;;;1.85;0.60;;;6.70;99.90;;;;;;4989392;28;20317;-69
2023/03/10 03:45:48;;;;;;;0.70;0.57;;;6.70;99.90;;;;;;4989193;28;20201;-70
2023/03/10 03:48:19;;;;;;;0.80;0.55;;;6.70;99.90;;;;;;4990957;28;20782;-70
2023/03/10 03:50:51;;;;;;;1.05;0.43;;;6.70;99.90;;;;;;4997165;28;20572;-68
2023/03/10 03:53:25;;;;;;;0.90;0.68;;;6.70;99.90;;;;;;4987397;28;20219;-69
2023/03/10 03:55:54;;;;;;;0.77;0.50;;;6.70;99.90;;;;;;4995790;28;20187;-69
2023/03/10 03:58:25;;;;;;;0.90;0.50;;;6.70;99.90;;;;;;4982774;28;20670;-69
2023/03/10 04:00:54;;;;;;;0.90;0.65;;;6.70;99.90;;;;;;4995218;28;20193;-69
2023/03/10 04:03:24;;;;;;;1.50;0.68;;;6.70;99.90;;;;;;4973976;28;20260;-69
2023/03/10 04:05:52;;;;;;;1.08;0.70;;;6.70;99.90;;;;;;4999067;28;20693;-69
2023/03/10 04:08:21;;;;;;;0.98;0.50;;;6.70;99.90;;;;;;4985382;28;20604;-68
2023/03/10 04:10:51;;;;;;;1.88;0.50;;;6.70;99.90;;;;;;4988040;28;20287;-69
2023/03/10 04:13:21;;;;;;;0.93;0.55;;;6.70;99.90;;;;;;4995263;28;20229;-69
2023/03/10 04:15:55;;;;;;;1.02;0.43;;;6.70;99.90;;;;;;4992575;28;20247;-68
2023/03/10 04:18:25;;;;;;;1.13;0.65;;;6.70;99.90;;;;;;4999296;28;20226;-69
2023/03/10 04:20:54;;;;;;;0.70;0.55;;;6.70;99.90;;;;;;4997025;28;20670;-69
2023/03/10 04:23:23;;;;;;;1.10;0.77;;;6.70;99.90;;;;;;4998755;28;20296;-68
2023/03/10 04:25:52;;;;;;;1.00;0.40;;;6.70;99.90;;;;;;5004848;28;20288;-68
2023/03/10 04:28:21;;;;;;;1.10;0.70;;;6.70;99.90;;;;;;4991577;28;20260;-68
2023/03/10 04:30:50;;;;;;;0.90;0.65;;;6.70;99.90;;;;;;4971580;28;20210;-67
2023/03/10 04:33:22;;;;;;;1.65;1.25;;;6.70;99.90;;;;;;5001760;28;20296;-69
2023/03/10 04:35:53;;;;;;;0.90;0.60;;;6.70;99.90;;;;;;4994733;28;20295;-69
2023/03/10 04:38:23;;;;;;;1.00;0.60;;;6.70;99.90;;;;;;4993289;28;20228;-70
2023/03/10 04:40:54;;;;;;;0.63;0.40;;;6.70;99.90;;;;;;5003910;28;20199;-69
2023/03/10 04:43:26;;;;;;;0.93;0.60;;;6.70;99.90;;;;;;5001336;28;20221;-69
2023/03/10 04:45:56;;;;;;;1.15;0.50;;;6.70;99.90;;;;;;4993381;28;20201;-70
2023/03/10 04:48:25;;;;;;;1.08;0.50;;;6.70;99.90;;;;;;4982693;28;20229;-68
2023/03/10 04:50:59;;;;;;;0.80;0.55;;;6.70;99.90;;;;;;4987054;28;20577;-68
2023/03/10 04:53:32;;;;;;;0.80;0.60;;;6.70;99.90;;;;;;4999140;28;20233;-68
2023/03/10 04:56:02;;;;;;;1.00;0.63;;;6.70;99.90;;;;;;5000934;28;20646;-67
2023/03/10 04:58:32;;;;;;;2.00;0.63;;;6.70;99.90;;;;;;4999567;28;20224;-68
2023/03/10 05:01:01;;;;;;;1.98;0.70;;;6.70;99.90;;;;;;4995129;28;20255;-68
2023/03/10 05:03:36;;;;;;;1.10;0.65;;;6.70;99.90;;;;;;4989834;28;20227;-70
2023/03/10 05:06:14;;;;;;;1.73;0.68;;;6.70;99.90;;;;;;5000035;28;20195;-68
2023/03/10 05:08:45;;;;;;;4.05;0.60;;;6.70;99.90;;;;;;4998821;28;20237;-68
2023/03/10 05:11:15;;;;;;;3.47;1.00;;;6.80;99.90;;;;;;4998261;28;20295;-68
2023/03/10 05:13:43;;;;;;;0.60;0.50;;;6.70;99.90;;;;;;4982983;28;20776;-69
2023/03/10 05:16:14;;;;;;;1.58;0.70;;;6.70;99.90;;;;;;4991648;28;20213;-68
2023/03/10 05:18:42;;;;;;;1.00;0.80;;;6.80;99.90;;;;;;4973142;28;20227;-68
2023/03/10 05:21:13;;;;;;;0.60;0.50;;;6.80;99.90;;;;;;4990433;28;20195;-67
2023/03/10 05:23:42;;;;;;;1.25;0.82;;;6.80;99.90;;;;;;4985266;28;20367;-69
2023/03/10 05:26:14;;;;;;;0.60;0.57;;;6.80;99.90;;;;;;4987144;28;20205;-69
2023/03/10 05:28:43;;;;;;;0.70;0.50;;;6.80;99.90;;;;;;4994620;28;20229;-69
2023/03/10 05:31:15;;;;;;;1.15;0.60;;;6.80;99.90;;;;;;4990453;28;20580;-69
2023/03/10 05:33:46;;;;;;;1.27;0.50;;;6.80;99.90;;;;;;4991632;28;20314;-67
2023/03/10 05:36:17;;;;;;;1.30;0.47;;;6.80;99.90;;;;;;4990786;28;20203;-68
2023/03/10 05:38:46;;;;;;;0.90;0.60;;;6.80;99.90;;;;;;4997284;28;20698;-67
2023/03/10 05:41:16;;;;;;;1.02;0.80;;;6.80;99.90;;;;;;4997574;28;20620;-67
2023/03/10 05:43:48;;;;;;;0.60;0.40;;;6.80;99.90;;;;;;4997129;28;20231;-69
2023/03/10 05:46:18;;;;;;;0.90;0.50;;;6.80;99.90;;;;;;4985670;28;20621;-68
2023/03/10 05:48:52;;;;;;;0.60;0.38;;;6.80;99.90;;;;;;5001052;28;20809;-69
2023/03/10 05:51:23;;;;;;;0.60;0.60;;;6.80;99.90;;;;;;4969256;28;20623;-68
2023/03/10 05:53:51;;;;;;;0.75;0.40;;;6.80;99.90;;;;;;4991655;28;20252;-69
2023/03/10 05:56:24;;;;;;;0.70;0.50;;;6.80;99.90;;;;;;4988557;28;20998;-67
2023/03/10 05:58:57;;;;;;;0.70;0.60;;;6.80;99.90;;;;;;5002545;28;20257;-69
2023/03/10 06:01:30;;;;;;;1.30;0.52;;;6.80;99.90;;;;;;4986321;28;20262;-67
2023/03/10 06:03:59;;;;;;;0.82;0.50;;;6.80;99.90;;;;;;4985645;28;20230;-67
2023/03/10 06:06:29;;;;;;;1.60;0.60;;;6.80;99.90;;;;;;4973822;28;20215;-67
2023/03/10 06:08:57;;;;;;;0.82;0.73;;;6.80;99.90;;;;;;4986226;28;20255;-67
2023/03/10 06:11:29;;;;;;;0.90;0.60;;;6.80;99.90;;;;;;4985426;28;20228;-67
2023/03/10 06:13:58;;;;;;;0.60;0.50;;;6.80;99.90;;;;;;4980556;28;20227;-70
2023/03/10 06:16:26;;;;;;;0.75;0.52;;;6.80;99.90;;;;;;4998829;28;20214;-69
2023/03/10 06:18:54;;;;;;;0.82;0.70;;;6.80;99.90;;;;;;4994694;28;20226;-68
2023/03/10 06:21:24;;;;;;;0.70;0.50;;;6.80;99.90;;;;;;4998600;28;20637;-67
2023/03/10 06:23:53;;;;;;;0.60;0.50;;;6.80;99.90;;;;;;4995831;28;20228;-67
2023/03/10 06:26:23;;;;;;;0.70;0.50;;;6.80;99.90;;;;;;4993365;28;20715;-67
2023/03/10 06:28:51;;;;;;;1.85;0.68;;;6.80;99.90;;;;;;4993368;28;20631;-69
2023/03/10 06:31:22;;;;;;;1.27;0.70;;;6.80;99.90;;;;;;4990400;28;20204;-67
2023/03/10 06:33:50;;;;;;;0.95;0.40;;;6.80;99.90;;;;;;4973079;28;20218;-69
2023/03/10 06:36:19;;;;;;;0.80;0.60;;;6.80;99.90;;;;;;4992854;28;20289;-67
2023/03/10 06:38:48;;;;;;;1.10;0.60;;;6.80;99.90;;;;;;4992133;28;20222;-66
2023/03/10 06:41:18;;;;;;;0.70;0.40;;;6.80;99.90;;;;;;4993088;28;20242;-68
2023/03/10 06:43:47;;;;;;;0.75;0.43;;;6.80;99.90;;;;;;4999778;28;20224;-67
2023/03/10 06:46:15;;;;;;;1.48;0.52;;;6.80;99.90;;;;;;4983812;28;20217;-68
2023/03/10 06:48:44;;;;;;;0.82;0.50;;;6.80;99.90;;;;;;4985279;28;20633;-67
2023/03/10 06:51:16;;;;;;;1.45;0.63;;;6.80;99.90;;;;;;5002576;28;20205;-69
2023/03/10 06:53:44;;;;;;;0.85;0.77;;;6.80;99.90;;;;;;4987787;28;20610;-66
2023/03/10 06:56:15;;;;;;;0.90;0.55;;;6.80;99.90;;;;;;4970127;28;20555;-67
2023/03/10 06:58:45;;;;;;;1.27;0.60;;;6.80;99.90;;;;;;5000209;28;20225;-68
2023/03/10 07:01:24;;;;;;;1.08;0.55;;;6.80;99.90;;;;;;4988361;28;20211;-68
2023/03/10 07:03:53;;;;;;;0.60;0.50;;;6.80;99.90;;;;;;4984307;28;20320;-68
2023/03/10 07:06:22;;;;;;;0.70;0.50;;;6.80;99.90;;;;;;5001445;28;20226;-68
2023/03/10 07:08:51;;;;;;;1.23;0.68;;;6.80;99.90;;;;;;5000663;28;20219;-67
2023/03/10 07:11:20;;;;;;;0.70;0.40;;;6.80;99.90;;;;;;4986504;28;20205;-68
2023/03/10 07:13:49;;;;;;;0.70;0.50;;;6.80;99.90;;;;;;4976216;28;20758;-67
2023/03/10 07:16:18;;;;;;;0.88;0.63;;;6.80;99.90;;;;;;4998904;28;20697;-67
2023/03/10 07:18:47;;;;;;;0.57;0.38;;;6.80;99.90;;;;;;4986474;28;20229;-67
2023/03/10 07:21:17;;;;;;;1.25;0.60;;;6.90;99.90;;;;;;4982866;28;20203;-68
2023/03/10 07:23:46;;;;;;;1.10;0.52;;;6.90;99.90;;;;;;4999842;28;20227;-68
2023/03/10 07:26:17;;;;;;;1.40;0.57;;;6.90;99.90;;;;;;4998781;28;20688;-67
2023/03/10 07:28:46;;;;;;;0.70;0.40;;;6.90;99.90;;;;;;4974261;28;20307;-68
2023/03/10 07:31:16;;;;;;;0.75;0.50;;;6.90;99.90;;;;;;4990424;28;20605;-66
2023/03/10 07:33:45;;;;;;;2.03;0.60;;;6.90;99.90;;;;;;4985739;28;20266;-67
2023/03/10 07:36:16;;;;;;;0.80;0.45;;;6.90;99.90;;;;;;4987207;28;20275;-67
2023/03/10 07:38:44;;;;;;;1.52;0.60;;;6.90;99.90;;;;;;4999806;28;20234;-66
2023/03/10 07:41:15;;;;;;;0.82;0.75;;;6.90;99.90;;;;;;5001573;28;20565;-66
2023/03/10 07:43:44;;;;;;;1.75;0.50;;;6.90;99.90;;;;;;4977726;28;20229;-67
2023/03/10 07:46:15;;;;;;;0.95;0.60;;;6.90;99.90;;;;;;4989492;28;20223;-68
2023/03/10 07:48:44;;;;;;;3.22;0.82;;;6.90;99.90;;;;;;4986631;28;20585;-66
2023/03/10 07:51:13;;;;;;;0.80;0.50;;;6.90;99.90;;;;;;4993265;28;20209;-65
2023/03/10 07:53:41;;;;;;;0.80;0.40;;;6.90;99.90;;;;;;4987899;28;20220;-68
2023/03/10 07:56:11;;;;;;;0.90;0.63;;;6.90;99.90;;;;;;4991743;28;20245;-66
2023/03/10 07:58:40;;;;;;;0.80;0.60;;;6.90;99.90;;;;;;4987407;28;20247;-67
2023/03/10 08:01:13;;;;;;;1.02;0.55;;;6.90;99.90;;;;;;4997500;28;20683;-68
2023/03/10 08:03:43;;;;;;;0.57;0.47;;;7.00;99.90;;;;;;4992748;28;20262;-66
2023/03/10 08:06:17;;;;;;;1.15;0.60;;;7.00;99.90;;;;;;5002202;28;20249;-66
2023/03/10 08:08:46;;;;;;;0.80;0.50;;;7.00;99.90;;;;;;4997487;28;20303;-66
2023/03/10 08:11:14;;;;;;;0.77;0.45;;;7.00;99.90;;;;;;5001353;28;20621;-66
2023/03/10 08:13:44;;;;;;;1.40;0.80;;;7.00;99.90;;;;;;4983249;28;20258;-66
2023/03/10 08:16:13;;;;;;;0.98;0.75;;;7.00;99.90;;;;;;4977125;28;20652;-68
2023/03/10 08:18:43;;;;;;;1.30;0.80;;;7.00;99.90;;;;;;4999204;28;20219;-66
2023/03/10 08:21:11;;;;;;;1.15;0.57;;;7.00;99.90;;;;;;4998739;28;20202;-66
2023/03/10 08:23:40;;;;;;;1.20;1.10;;;7.00;99.90;;;;;;5003432;28;20219;-68
2023/03/10 08:26:12;;;;;;;2.65;0.80;;;7.00;99.90;;;;;;4994486;28;20223;-68
2023/03/10 08:28:41;;;;;;;0.85;0.45;;;7.00;99.90;;;;;;4994242;28;20313;-68
2023/03/10 08:31:11;;;;;;;0.88;0.60;;;7.00;99.90;;;;;;4992298;28;20200;-67
2023/03/10 08:33:40;;;;;;;2.00;1.00;;;7.00;99.90;;;;;;4984519;28;20302;-67
2023/03/10 08:36:13;;;;;;;0.93;0.50;;;7.00;99.90;;;;;;4997815;28;20277;-66
2023/03/10 08:38:42;;;;;;;1.55;0.80;;;7.10;99.90;;;;;;4987654;28;20917;-66
2023/03/10 08:41:13;;;;;;;2.25;0.73;;;7.00;99.90;;;;;;5003406;28;20246;-68
2023/03/10 08:43:42;;;;;;;2.67;1.20;;;7.10;99.90;;;;;;4994423;28;20222;-66
2023/03/10 08:46:10;;;;;;;1.33;0.57;;;7.10;99.90;;;;;;4976133;28;20223;-67
2023/03/10 08:48:40;;;;;;;2.45;0.70;;;7.10;99.90;;;;;;4985070;28;20764;-66
2023/03/10 08:51:12;;;;;;;0.82;0.63;;;7.10;99.90;;;;;;4983712;28;20579;-66
2023/03/10 08:53:45;;;;;;;1.80;0.55;;;7.10;99.90;;;;;;4998773;28;20227;-67
2023/03/10 08:56:14;;;;;;;1.33;0.50;;;7.10;99.90;;;;;;4998659;28;20285;-66
2023/03/10 08:58:43;;;;;;;2.45;0.70;;;7.20;99.90;;;;;;4975477;28;20233;-67
2023/03/10 09:01:12;;;;;;;1.13;0.70;;;7.20;99.90;;;;;;5000278;28;20368;-67
2023/03/10 09:03:41;;;;;;;1.30;0.70;;;7.20;99.90;;;;;;5003681;28;20246;-66
2023/03/10 09:06:11;;;;;;;0.90;0.50;;;7.20;99.90;;;;;;4995833;28;20661;-67
2023/03/10 09:08:40;;;;;;;1.05;0.88;;;7.20;99.90;;;;;;5002562;28;20309;-67
2023/03/10 09:11:08;;;;;;;1.33;0.65;;;7.20;99.90;;;;;;4998375;28;20626;-68
2023/03/10 09:13:38;;;;;;;0.90;0.50;;;7.20;99.90;;;;;;4977967;28;20240;-66
2023/03/10 09:16:08;;;;;;;1.48;1.20;;;7.20;99.90;;;;;;4982268;28;20209;-68
2023/03/10 09:18:38;;;;;;;2.60;0.80;;;7.20;99.90;;;;;;4998431;28;20230;-67
2023/03/10 09:21:07;;;;;;;2.13;0.75;;;7.20;99.90;;;;;;4984530;28;20289;-66
2023/03/10 09:23:37;;;;;;;1.13;0.68;;;7.30;99.90;;;;;;4979806;28;20223;-66
2023/03/10 09:26:05;;;;;;;1.33;0.63;;;7.20;99.90;;;;;;4999829;28;20260;-67
2023/03/10 09:28:34;;;;;;;0.77;0.47;;;7.30;99.90;;;;;;4994929;28;20233;-66
2023/03/10 09:31:04;;;;;;;1.52;0.80;;;7.30;99.90;;;;;;4985882;28;20199;-67
2023/03/10 09:33:32;;;;;;;0.80;0.55;;;7.30;99.90;;;;;;4979087;28;20970;-66
2023/03/10 09:36:02;;;;;;;1.05;0.70;;;7.30;99.90;;;;;;5003948;28;20216;-67
2023/03/10 09:38:36;;;;;;;0.77;0.70;;;7.30;99.90;;;;;;4978472;28;20640;-66
2023/03/10 09:41:20;;;;;;;1.63;0.82;;;7.30;99.90;;;;;;4987168;28;20678;-66
2023/03/10 09:43:55;;;;;;;0.73;0.52;;;7.30;99.90;;;;;;4983758;28;20274;-68
2023/03/10 09:46:30;;;;;;;2.72;1.00;;;7.30;99.90;;;;;;4991008;28;20535;-68
2023/03/10 09:49:06;;;;;;;2.25;0.60;;;7.30;99.90;;;;;;4975718;28;20252;-67
2023/03/10 09:51:38;;;;;;;3.00;0.82;;;7.40;99.90;;;;;;4985276;28;20221;-67
2023/03/10 09:54:32;;;;;;;1.23;0.70;;;7.40;99.90;;;;;;4992818;28;20650;-66
2023/03/10 09:57:03;;;;;;;2.50;0.70;;;7.40;99.90;;;;;;4987811;28;20681;-67
2023/03/10 09:59:36;;;;;;;1.60;0.60;;;7.40;99.90;;;;;;4999370;28;20197;-67
2023/03/10 10:02:16;;;;;;;1.23;0.80;;;7.40;99.90;;;;;;5002594;28;20196;-66
2023/03/10 10:04:44;;;;;;;5.40;0.73;;;7.40;99.90;;;;;;4995583;28;20746;-66
2023/03/10 10:07:17;;;;;;;2.60;0.70;;;7.30;99.90;;;;;;4999562;28;20693;-66
2023/03/10 10:09:52;;;;;;;1.65;0.70;;;7.30;99.90;;;;;;4984939;28;20849;-66
2023/03/10 10:12:24;;;;;;;1.40;0.68;;;7.30;99.90;;;;;;4979138;28;20205;-67
2023/03/10 10:14:58;;;;;;;1.15;0.70;;;7.30;99.90;;;;;;4980076;28;20215;-66
2023/03/10 10:17:40;;;;;;;0.88;0.63;;;7.30;99.90;;;;;;4977073;28;20467;-67
2023/03/10 10:20:25;;;;;;;0.80;0.55;;;7.30;99.90;;;;;;4998858;28;20198;-66
2023/03/10 10:22:54;;;;;;;1.73;0.75;;;7.30;99.90;;;;;;5005191;28;20196;-68
2023/03/10 10:25:25;;;;;;;2.85;0.73;;;7.30;99.90;;;;;;4988533;28;20231;-66
2023/03/10 10:27:56;;;;;;;1.90;1.27;;;7.30;99.90;;;;;;4997468;28;20223;-67
2023/03/10 10:30:28;;;;;;;1.10;0.70;;;7.30;99.90;;;;;;4992707;28;20213;-66
2023/03/10 10:32:59;;;;;;;0.70;0.50;;;7.30;99.90;;;;;;4978924;28;20327;-66
2023/03/10 10:35:30;;;;;;;1.33;0.70;;;7.30;99.90;;;;;;4984136;28;20204;-68
2023/03/10 10:38:01;;;;;;;1.75;0.80;;;7.30;99.90;;;;;;4982611;28;20713;-66
2023/03/10 10:40:33;;;;;;;2.20;0.60;;;7.30;99.90;;;;;;4975850;28;20200;-67
2023/03/10 10:43:04;;;;;;;1.10;0.75;;;7.30;99.90;;;;;;4998132;28;20439;-66
2023/03/10 10:45:35;;;;;;;1.30;0.60;;;7.30;99.90;;;;;;4993032;28;20196;-66
2023/03/10 10:48:03;;;;;;;2.13;0.82;;;7.30;99.90;;;;;;4995374;28;20230;-68
2023/03/10 10:50:34;;;;;;;0.85;0.65;;;7.30;99.90;;;;;;4998727;28;20201;-68
2023/03/10 10:53:19;;;;;;;1.23;0.60;;;7.30;99.90;;;;;;4972693;28;20700;-65
2023/03/10 10:56:00;;;;;;;2.35;1.08;;;7.30;99.90;;;;;;4986391;28;20198;-67
2023/03/10 10:58:31;;;;;;;1.45;0.82;;;7.30;99.90;;;;;;4999142;28;20290;-67
2023/03/10 11:01:01;;;;;;;1.10;0.60;;;7.30;99.90;;;;;;4996854;28;20280;-67
2023/03/10 11:03:33;;;;;;;1.05;0.65;;;7.30;99.90;;;;;;4974293;28;20279;-66
2023/03/10 11:06:11;;;;;;;4.28;1.80;;;7.30;99.90;;;;;;4982075;28;20489;-67
2023/03/10 11:08:43;;;;;;;4.50;1.85;;;7.40;99.90;;;;;;4980722;28;20254;-68
2023/03/10 11:11:22;;;;;;;4.75;1.45;;;7.40;99.90;;;;;;4979545;28;20219;-66
2023/03/10 11:14:14;;;;;;;4.40;1.40;;;7.40;99.90;;;;;;4996490;28;20310;-67
2023/03/10 11:16:51;;;;;;;10.55;1.95;;;7.40;99.90;;;;;;4990804;28;20320;-68
2023/03/10 11:19:27;;;;;;;2.22;0.75;;;7.40;99.90;;;;;;4986212;28;20224;-68
2023/03/10 11:22:03;;;;;;;3.88;1.25;;;7.40;99.90;;;;;;5000736;28;20678;-66
2023/03/10 11:24:37;;;;;;;1.92;0.70;;;7.40;99.90;;;;;;5002736;28;20221;-66
2023/03/10 11:27:15;;;;;;;1.85;0.77;;;7.40;99.90;;;;;;4986937;28;20712;-67
2023/03/10 11:30:01;;;;;;;2.35;1.08;;;7.40;99.90;;;;;;5001131;28;20579;-66
2023/03/10 11:32:36;;;;;;;0.75;0.50;;;7.40;99.90;;;;;;4999855;28;20212;-67
2023/03/10 11:35:18;;;;;;;2.75;1.00;;;7.40;99.90;;;;;;4999088;28;20211;-68
2023/03/10 11:37:53;;;;;;;1.60;0.90;;;7.40;99.90;;;;;;4978808;28;20779;-67
2023/03/10 11:40:28;;;;;;;1.17;0.80;;;7.40;99.90;;;;;;4986252;28;20204;-68
2023/03/10 11:43:03;;;;;;;0.95;0.70;;;7.40;99.90;;;;;;4987239;28;20240;-68
2023/03/10 11:45:37;;;;;;;1.75;0.63;;;7.40;99.90;;;;;;5000285;28;20198;-66
2023/03/10 11:48:27;;;;;;;2.88;0.65;;;7.40;99.90;;;;;;5000523;28;20349;-67
2023/03/10 11:50:58;;;;;;;1.25;0.65;;;7.40;99.90;;;;;;5000779;28;20197;-67
2023/03/10 11:53:34;;;;;;;1.98;0.90;;;7.40;99.90;;;;;;5002521;28;20885;-67
2023/03/10 11:56:04;;;;;;;1.60;0.70;;;7.40;99.90;;;;;;4999539;28;20542;-66
2023/03/10 11:58:41;;;;;;;1.55;1.02;;;7.40;99.90;;;;;;4998595;28;20345;-66
2023/03/10 12:01:13;;;;;;;0.90;0.60;;;7.40;99.90;;;;;;4999957;28;20210;-68
2023/03/10 12:03:50;;;;;;;2.25;0.90;;;7.40;99.90;;;;;;5001507;28;20257;-68
2023/03/10 12:06:22;;;;;;;1.13;0.85;;;7.40;99.90;;;;;;4973893;28;20670;-67
2023/03/10 12:08:56;;;;;;;1.23;0.75;;;7.40;99.90;;;;;;4987150;28;20223;-69
2023/03/10 12:11:27;;;;;;;3.40;1.38;;;7.40;99.90;;;;;;5004603;28;20225;-66
2023/03/10 12:13:59;;;;;;;2.60;1.02;;;7.40;99.90;;;;;;4999866;28;20225;-67
2023/03/10 12:16:30;;;;;;;2.00;0.82;;;7.40;99.90;;;;;;4988583;28;20206;-67
2023/03/10 12:18:59;;;;;;;1.77;0.90;;;7.40;99.90;;;;;;4987300;28;20220;-69
2023/03/10 12:21:28;;;;;;;1.45;0.68;;;7.40;99.90;;;;;;5004619;28;20237;-66
2023/03/10 12:23:58;;;;;;;1.48;0.95;;;7.40;99.90;;;;;;4983995;28;20237;-67
2023/03/10 12:27:01;;;;;;;1.40;0.65;;;7.40;99.90;;;;;;4973725;28;20209;-66
2023/03/10 12:29:39;;;;;;;1.60;0.60;;;7.40;99.90;;;;;;4990632;28;20235;-67
2023/03/10 12:32:46;;;;;;;3.03;0.77;;;7.40;99.90;;;;;;4973235;28;20253;-68
2023/03/10 12:35:47;;;;;;;1.55;0.70;;;7.40;99.90;;;;;;4981625;28;20202;-68
2023/03/10 12:38:44;;;;;;;0.75;0.55;;;7.50;99.90;;;;;;4985372;28;20234;-67
2023/03/10 12:41:14;;;;;;;0.80;0.60;;;7.50;99.90;;;;;;4985698;28;20336;-66
2023/03/10 12:44:07;;;;;;;3.95;0.80;;;7.50;99.90;;;;;;4980229;28;20578;-66
2023/03/10 12:46:47;;;;;;;0.95;0.43;;;7.50;99.90;;;;;;4975101;28;20611;-68
2023/03/10 12:49:32;;;;;;;1.17;0.68;;;7.50;99.90;;;;;;5000199;28;20232;-66
2023/03/10 12:52:19;;;;;;;2.55;0.63;;;7.50;99.90;;;;;;4995846;28;20748;-68
2023/03/10 12:55:15;;;;;;;1.20;0.90;;;7.50;99.90;;;;;;4974116;28;20221;-66
2023/03/10 12:58:00;;;;;;;1.10;0.50;;;7.50;99.90;;;;;;4993213;28;20240;-66
2023/03/10 13:00:35;;;;;;;1.17;0.60;;;7.60;99.90;;;;;;4993030;28;20705;-66
2023/03/10 13:03:15;;;;;;;1.33;0.50;;;7.60;99.90;;;;;;5002849;28;20220;-68
2023/03/10 13:05:57;;;;;;;1.20;0.70;;;7.60;99.90;;;;;;4984316;28;20555;-67
2023/03/10 13:08:33;;;;;;;1.67;0.80;;;7.50;99.90;;;;;;4994305;28;20237;-70
2023/03/10 13:11:03;;;;;;;0.88;0.70;;;7.60;99.90;;;;;;4995380;28;20297;-67
2023/03/10 13:13:34;;;;;;;0.95;0.65;;;7.60;99.90;;;;;;4990229;28;20256;-68
2023/03/10 13:16:05;;;;;;;2.45;0.55;;;7.60;99.90;;;;;;4980073;28;20711;-66
2023/03/10 13:18:36;;;;;;;1.80;0.68;;;7.60;99.90;;;;;;4979530;28;20444;-66
2023/03/10 13:21:04;;;;;;;0.90;0.60;;;7.60;99.90;;;;;;4971401;28;20204;-67
2023/03/10 13:23:35;;;;;;;1.58;1.00;;;7.60;99.90;;;;;;4990147;28;20228;-68